sensor_id;sensor_type;location;lat;lon;timestamp;pressure;altitude;pressure_sealevel;temperature;humidity
40850;BME280;26571;41.610;25.380;2023-03-26T00:01:30;97534.88;;;14.26;nan
40850;BME280;26571;41.610;25.380;2023-03-26T00:04:00;97531.47;;;14.19;nan
40850;BME280;26571;41.610;25.380;2023-03-26T00:06:27;97541.28;;;14.05;nan
40850;BME280;26571;41.610;25.380;2023-03-26T00:08:53;97535.22;;;13.98;nan
40850;BME280;26571;41.610;25.380;2023-03-26T00:11:20;97546.63;;;13.99;nan
40850;BME280;26571;41.610;25.380;2023-03-26T00:13:46;97532.97;;;14.02;nan
40850;BME280;26571;41.610;25.380;2023-03-26T00:16:12;97536.25;;;13.90;nan
40850;BME280;26571;41.610;25.380;2023-03-26T00:18:39;97532.59;;;13.91;nan
40850;BME280;26571;41.610;25.380;2023-03-26T00:21:07;97520.63;;;13.82;nan
40850;BME280;26571;41.610;25.380;2023-03-26T00:23:33;97522.66;;;13.80;nan
40850;BME280;26571;41.610;25.380;2023-03-26T00:25:59;97524.69;;;13.85;nan
40850;BME280;26571;41.610;25.380;2023-03-26T00:28:25;97525.09;;;13.88;nan
40850;BME280;26571;41.610;25.380;2023-03-26T00:31:01;97529.22;;;13.71;nan
40850;BME280;26571;41.610;25.380;2023-03-26T00:33:27;97531.69;;;13.59;nan
40850;BME280;26571;41.610;25.380;2023-03-26T00:35:55;97532.09;;;13.63;nan
40850;BME280;26571;41.610;25.380;2023-03-26T00:38:23;97514.81;;;13.47;nan
40850;BME280;26571;41.610;25.380;2023-03-26T00:40:51;97514.63;;;13.49;nan
40850;BME280;26571;41.610;25.380;2023-03-26T00:43:17;97512.59;;;13.44;nan
40850;BME280;26571;41.610;25.380;2023-03-26T00:45:50;97519.09;;;13.41;nan
40850;BME280;26571;41.610;25.380;2023-03-26T00:48:15;97519.09;;;13.41;nan
40850;BME280;26571;41.610;25.380;2023-03-26T00:50:41;97515.47;;;13.29;nan
40850;BME280;26571;41.610;25.380;2023-03-26T00:53:08;97524.44;;;13.28;nan
40850;BME280;26571;41.610;25.380;2023-03-26T00:55:36;97520.16;;;13.14;nan
40850;BME280;26571;41.610;25.380;2023-03-26T00:58:01;97522.78;;;13.14;nan
40850;BME280;26571;41.610;25.380;2023-03-26T01:00:30;97527.06;;;13.15;nan
40850;BME280;26571;41.610;25.380;2023-03-26T01:02:59;97524.00;;;13.05;nan
40850;BME280;26571;41.610;25.380;2023-03-26T01:08:03;97538.25;;;12.90;nan
40850;BME280;26571;41.610;25.380;2023-03-26T01:10:29;97542.91;;;12.88;nan
40850;BME280;26571;41.610;25.380;2023-03-26T01:13:02;97548.81;;;12.90;nan
40850;BME280;26571;41.610;25.380;2023-03-26T01:15:28;97544.13;;;12.99;nan
40850;BME280;26571;41.610;25.380;2023-03-26T01:17:53;97539.88;;;12.98;nan
40850;BME280;26571;41.610;25.380;2023-03-26T01:20:22;97532.13;;;13.10;nan
40850;BME280;26571;41.610;25.380;2023-03-26T01:22:51;97545.94;;;13.12;nan
40850;BME280;26571;41.610;25.380;2023-03-26T01:25:18;97556.94;;;13.15;nan
40850;BME280;26571;41.610;25.380;2023-03-26T01:27:54;97555.31;;;13.08;nan
40850;BME280;26571;41.610;25.380;2023-03-26T01:43:23;97541.50;;;12.99;nan
40850;BME280;26571;41.610;25.380;2023-03-26T01:45:50;97541.50;;;12.79;nan
40850;BME280;26571;41.610;25.380;2023-03-26T01:48:16;97554.91;;;12.91;nan
40850;BME280;26571;41.610;25.380;2023-03-26T01:50:41;97559.97;;;12.79;nan
40850;BME280;26571;41.610;25.380;2023-03-26T01:53:07;97551.44;;;12.77;nan
40850;BME280;26571;41.610;25.380;2023-03-26T01:55:37;97552.44;;;12.76;nan
40850;BME280;26571;41.610;25.380;2023-03-26T02:00:31;97559.31;;;12.51;nan
40850;BME280;26571;41.610;25.380;2023-03-26T02:03:07;97571.66;;;12.30;nan
40850;BME280;26571;41.610;25.380;2023-03-26T02:06:29;97565.56;;;12.36;nan
40850;BME280;26571;41.610;25.380;2023-03-26T02:08:28;97556.84;;;12.42;nan
40850;BME280;26571;41.610;25.380;2023-03-26T02:10:59;97568.41;;;12.35;nan
40850;BME280;26571;41.610;25.380;2023-03-26T02:13:26;97568.56;;;12.20;nan
40850;BME280;26571;41.610;25.380;2023-03-26T02:16:02;97577.47;;;12.12;nan
40850;BME280;26571;41.610;25.380;2023-03-26T02:18:27;97576.25;;;12.15;nan
40850;BME280;26571;41.610;25.380;2023-03-26T02:21:13;97583.38;;;12.21;nan
40850;BME280;26571;41.610;25.380;2023-03-26T02:23:40;97585.22;;;12.21;nan
40850;BME280;26571;41.610;25.380;2023-03-26T02:26:09;97588.22;;;12.18;nan
40850;BME280;26571;41.610;25.380;2023-03-26T02:28:35;97586.03;;;12.21;nan
40850;BME280;26571;41.610;25.380;2023-03-26T02:31:00;97594.09;;;12.13;nan
40850;BME280;26571;41.610;25.380;2023-03-26T02:33:29;97599.13;;;12.01;nan
40850;BME280;26571;41.610;25.380;2023-03-26T02:35:55;97595.31;;;12.04;nan
40850;BME280;26571;41.610;25.380;2023-03-26T02:38:23;97597.16;;;12.16;nan
40850;BME280;26571;41.610;25.380;2023-03-26T02:40:49;97601.75;;;11.95;nan
40850;BME280;26571;41.610;25.380;2023-03-26T02:43:14;97602.28;;;11.83;nan
40850;BME280;26571;41.610;25.380;2023-03-26T02:45:40;97604.41;;;11.73;nan
40850;BME280;26571;41.610;25.380;2023-03-26T02:48:05;97604.28;;;11.81;nan
40850;BME280;26571;41.610;25.380;2023-03-26T02:50:30;97597.25;;;11.88;nan
40850;BME280;26571;41.610;25.380;2023-03-26T02:52:56;97602.91;;;11.85;nan
40850;BME280;26571;41.610;25.380;2023-03-26T02:55:22;97610.25;;;11.97;nan
40850;BME280;26571;41.610;25.380;2023-03-26T02:57:47;97609.09;;;12.06;nan
40850;BME280;26571;41.610;25.380;2023-03-26T03:00:12;97608.31;;;12.12;nan
40850;BME280;26571;41.610;25.380;2023-03-26T03:02:38;97611.75;;;12.12;nan
40850;BME280;26571;41.610;25.380;2023-03-26T03:05:03;97618.06;;;12.18;nan
40850;BME280;26571;41.610;25.380;2023-03-26T03:07:29;97622.81;;;12.29;nan
40850;BME280;26571;41.610;25.380;2023-03-26T03:09:54;97617.75;;;12.34;nan
40850;BME280;26571;41.610;25.380;2023-03-26T03:12:20;97621.78;;;12.30;nan
40850;BME280;26571;41.610;25.380;2023-03-26T03:14:45;97624.22;;;12.25;nan
40850;BME280;26571;41.610;25.380;2023-03-26T03:17:10;97630.28;;;12.26;nan
40850;BME280;26571;41.610;25.380;2023-03-26T03:19:35;97630.50;;;12.24;nan
40850;BME280;26571;41.610;25.380;2023-03-26T03:22:01;97625.59;;;12.21;nan
40850;BME280;26571;41.610;25.380;2023-03-26T03:24:27;97626.06;;;12.31;nan
40850;BME280;26571;41.610;25.380;2023-03-26T03:26:52;97624.22;;;12.32;nan
40850;BME280;26571;41.610;25.380;2023-03-26T03:29:20;97619.81;;;12.39;nan
40850;BME280;26571;41.610;25.380;2023-03-26T03:31:46;97626.91;;;12.38;nan
40850;BME280;26571;41.610;25.380;2023-03-26T03:34:11;97626.53;;;12.48;nan
40850;BME280;26571;41.610;25.380;2023-03-26T03:36:36;97628.75;;;12.45;nan
40850;BME280;26571;41.610;25.380;2023-03-26T03:39:02;97624.50;;;12.44;nan
40850;BME280;26571;41.610;25.380;2023-03-26T03:41:29;97631.03;;;12.54;nan
40850;BME280;26571;41.610;25.380;2023-03-26T03:43:54;97635.28;;;12.55;nan
40850;BME280;26571;41.610;25.380;2023-03-26T03:46:20;97634.69;;;12.60;nan
40850;BME280;26571;41.610;25.380;2023-03-26T03:48:45;97630.81;;;12.56;nan
40850;BME280;26571;41.610;25.380;2023-03-26T03:51:14;97623.09;;;12.61;nan
40850;BME280;26571;41.610;25.380;2023-03-26T03:53:39;97625.16;;;12.59;nan
40850;BME280;26571;41.610;25.380;2023-03-26T03:56:05;97627.34;;;12.55;nan
40850;BME280;26571;41.610;25.380;2023-03-26T03:58:34;97622.06;;;12.55;nan
40850;BME280;26571;41.610;25.380;2023-03-26T04:00:59;97632.84;;;12.54;nan
40850;BME280;26571;41.610;25.380;2023-03-26T04:03:27;97627.94;;;12.44;nan
40850;BME280;26571;41.610;25.380;2023-03-26T04:05:53;97638.00;;;12.27;nan
40850;BME280;26571;41.610;25.380;2023-03-26T04:08:19;97642.91;;;12.30;nan
40850;BME280;26571;41.610;25.380;2023-03-26T04:10:44;97650.97;;;12.22;nan
40850;BME280;26571;41.610;25.380;2023-03-26T04:13:10;97647.72;;;12.20;nan
40850;BME280;26571;41.610;25.380;2023-03-26T04:15:36;97647.53;;;12.22;nan
40850;BME280;26571;41.610;25.380;2023-03-26T04:18:02;97641.63;;;12.20;nan
40850;BME280;26571;41.610;25.380;2023-03-26T04:20:27;97653.16;;;12.12;nan
40850;BME280;26571;41.610;25.380;2023-03-26T04:22:52;97646.88;;;12.13;nan
40850;BME280;26571;41.610;25.380;2023-03-26T04:25:17;97658.84;;;12.09;nan
40850;BME280;26571;41.610;25.380;2023-03-26T04:27:43;97661.84;;;12.06;nan
40850;BME280;26571;41.610;25.380;2023-03-26T04:30:09;97660.38;;;11.97;nan
40850;BME280;26571;41.610;25.380;2023-03-26T04:32:36;97665.03;;;11.95;nan
40850;BME280;26571;41.610;25.380;2023-03-26T04:35:04;97666.66;;;11.96;nan
40850;BME280;26571;41.610;25.380;2023-03-26T04:37:31;97665.81;;;11.88;nan
40850;BME280;26571;41.610;25.380;2023-03-26T04:40:04;97663.28;;;11.80;nan
40850;BME280;26571;41.610;25.380;2023-03-26T04:42:32;97676.75;;;11.85;nan
40850;BME280;26571;41.610;25.380;2023-03-26T04:44:57;97674.38;;;11.97;nan
40850;BME280;26571;41.610;25.380;2023-03-26T04:47:23;97671.41;;;12.07;nan
40850;BME280;26571;41.610;25.380;2023-03-26T04:49:49;97673.22;;;12.06;nan
40850;BME280;26571;41.610;25.380;2023-03-26T04:52:14;97685.47;;;12.14;nan
40850;BME280;26571;41.610;25.380;2023-03-26T04:54:40;97690.03;;;12.33;nan
40850;BME280;26571;41.610;25.380;2023-03-26T04:57:09;97696.25;;;12.67;nan
40850;BME280;26571;41.610;25.380;2023-03-26T04:59:37;97684.47;;;13.44;nan
40850;BME280;26571;41.610;25.380;2023-03-26T05:02:05;97686.59;;;14.33;nan
40850;BME280;26571;41.610;25.380;2023-03-26T05:04:32;97691.81;;;15.05;nan
40850;BME280;26571;41.610;25.380;2023-03-26T05:07:00;97700.84;;;15.29;nan
40850;BME280;26571;41.610;25.380;2023-03-26T05:09:26;97704.41;;;15.41;nan
40850;BME280;26571;41.610;25.380;2023-03-26T05:11:52;97708.31;;;15.38;nan
40850;BME280;26571;41.610;25.380;2023-03-26T05:14:17;97711.28;;;15.23;nan
40850;BME280;26571;41.610;25.380;2023-03-26T05:16:43;97704.03;;;15.06;nan
40850;BME280;26571;41.610;25.380;2023-03-26T05:19:10;97711.88;;;14.87;nan
40850;BME280;26571;41.610;25.380;2023-03-26T05:21:35;97702.75;;;14.77;nan
40850;BME280;26571;41.610;25.380;2023-03-26T05:24:01;97711.25;;;14.92;nan
40850;BME280;26571;41.610;25.380;2023-03-26T05:26:26;97702.19;;;15.69;nan
40850;BME280;26571;41.610;25.380;2023-03-26T05:28:53;97709.97;;;17.18;nan
40850;BME280;26571;41.610;25.380;2023-03-26T05:31:18;97721.81;;;18.69;nan
40850;BME280;26571;41.610;25.380;2023-03-26T05:33:45;97727.16;;;19.09;nan
40850;BME280;26571;41.610;25.380;2023-03-26T05:36:11;97731.63;;;18.92;nan
40850;BME280;26571;41.610;25.380;2023-03-26T05:38:39;97728.09;;;19.03;nan
40850;BME280;26571;41.610;25.380;2023-03-26T05:41:06;97722.75;;;19.32;nan
40850;BME280;26571;41.610;25.380;2023-03-26T05:43:32;97725.66;;;19.93;nan
40850;BME280;26571;41.610;25.380;2023-03-26T05:45:58;97723.47;;;19.73;nan
40850;BME280;26571;41.610;25.380;2023-03-26T05:48:23;97722.13;;;19.58;nan
40850;BME280;26571;41.610;25.380;2023-03-26T05:50:49;97725.69;;;20.92;nan
40850;BME280;26571;41.610;25.380;2023-03-26T05:53:15;97728.50;;;22.63;nan
40850;BME280;26571;41.610;25.380;2023-03-26T05:55:42;97721.53;;;24.27;nan
40850;BME280;26571;41.610;25.380;2023-03-26T05:58:09;97724.47;;;25.60;nan
40850;BME280;26571;41.610;25.380;2023-03-26T06:00:35;97725.38;;;26.71;nan
40850;BME280;26571;41.610;25.380;2023-03-26T06:03:03;97721.41;;;27.30;nan
40850;BME280;26571;41.610;25.380;2023-03-26T06:05:30;97720.06;;;27.98;nan
40850;BME280;26571;41.610;25.380;2023-03-26T06:07:56;97729.06;;;28.26;nan
40850;BME280;26571;41.610;25.380;2023-03-26T06:10:21;97731.69;;;27.99;nan
40850;BME280;26571;41.610;25.380;2023-03-26T06:12:47;97733.81;;;28.35;nan
40850;BME280;26571;41.610;25.380;2023-03-26T06:15:13;97727.41;;;29.49;nan
40850;BME280;26571;41.610;25.380;2023-03-26T06:17:39;97730.97;;;29.95;nan
40850;BME280;26571;41.610;25.380;2023-03-26T06:20:05;97730.03;;;29.77;nan
40850;BME280;26571;41.610;25.380;2023-03-26T06:22:31;97730.25;;;30.11;nan
40850;BME280;26571;41.610;25.380;2023-03-26T06:24:56;97726.38;;;30.66;nan
40850;BME280;26571;41.610;25.380;2023-03-26T06:27:22;97728.94;;;29.55;nan
40850;BME280;26571;41.610;25.380;2023-03-26T06:29:47;97727.94;;;29.38;nan
40850;BME280;26571;41.610;25.380;2023-03-26T06:32:13;97728.00;;;29.46;nan
40850;BME280;26571;41.610;25.380;2023-03-26T06:34:38;97731.47;;;30.19;nan
40850;BME280;26571;41.610;25.380;2023-03-26T06:37:03;97738.50;;;29.39;nan
40850;BME280;26571;41.610;25.380;2023-03-26T06:39:29;97748.47;;;28.61;nan
40850;BME280;26571;41.610;25.380;2023-03-26T06:41:54;97740.13;;;26.79;nan
40850;BME280;26571;41.610;25.380;2023-03-26T06:44:20;97743.13;;;25.56;nan
40850;BME280;26571;41.610;25.380;2023-03-26T06:46:45;97748.44;;;24.42;nan
40850;BME280;26571;41.610;25.380;2023-03-26T06:49:10;97756.84;;;22.96;nan
40850;BME280;26571;41.610;25.380;2023-03-26T06:51:36;97748.50;;;22.08;nan
40850;BME280;26571;41.610;25.380;2023-03-26T06:54:03;97756.28;;;22.04;nan
40850;BME280;26571;41.610;25.380;2023-03-26T06:56:28;97747.00;;;21.85;nan
40850;BME280;26571;41.610;25.380;2023-03-26T06:58:53;97755.47;;;21.72;nan
40850;BME280;26571;41.610;25.380;2023-03-26T07:01:19;97762.28;;;21.30;nan
40850;BME280;26571;41.610;25.380;2023-03-26T07:03:44;97754.00;;;21.10;nan
40850;BME280;26571;41.610;25.380;2023-03-26T07:06:09;97751.59;;;21.30;nan
40850;BME280;26571;41.610;25.380;2023-03-26T07:08:35;97752.63;;;22.58;nan
40850;BME280;26571;41.610;25.380;2023-03-26T07:11:00;97739.31;;;23.87;nan
40850;BME280;26571;41.610;25.380;2023-03-26T07:13:25;97742.88;;;24.98;nan
40850;BME280;26571;41.610;25.380;2023-03-26T07:15:50;97745.69;;;25.76;nan
40850;BME280;26571;41.610;25.380;2023-03-26T07:18:16;97742.28;;;25.95;nan
40850;BME280;26571;41.610;25.380;2023-03-26T07:20:42;97744.00;;;26.15;nan
40850;BME280;26571;41.610;25.380;2023-03-26T07:23:09;97736.22;;;26.42;nan
40850;BME280;26571;41.610;25.380;2023-03-26T07:25:35;97728.66;;;26.39;nan
40850;BME280;26571;41.610;25.380;2023-03-26T07:43:58;97739.25;;;24.53;nan
40850;BME280;26571;41.610;25.380;2023-03-26T07:46:27;97757.84;;;23.63;nan
40850;BME280;26571;41.610;25.380;2023-03-26T07:48:52;97756.38;;;23.19;nan
40850;BME280;26571;41.610;25.380;2023-03-26T07:51:19;97758.34;;;22.77;nan
40850;BME280;26571;41.610;25.380;2023-03-26T07:53:44;97755.81;;;22.55;nan
40850;BME280;26571;41.610;25.380;2023-03-26T07:56:13;97758.81;;;22.63;nan
40850;BME280;26571;41.610;25.380;2023-03-26T08:01:11;97759.22;;;23.96;nan
40850;BME280;26571;41.610;25.380;2023-03-26T08:06:07;97759.72;;;24.54;nan
40850;BME280;26571;41.610;25.380;2023-03-26T08:11:10;97753.97;;;24.81;nan
40850;BME280;26571;41.610;25.380;2023-03-26T08:14:02;97750.44;;;24.86;nan
40850;BME280;26571;41.610;25.380;2023-03-26T08:16:27;97747.69;;;25.01;nan
40850;BME280;26571;41.610;25.380;2023-03-26T08:21:43;97739.94;;;25.88;nan
40850;BME280;26571;41.610;25.380;2023-03-26T08:24:20;97736.53;;;26.07;nan
40850;BME280;26571;41.610;25.380;2023-03-26T08:31:51;97739.09;;;26.22;nan
40850;BME280;26571;41.610;25.380;2023-03-26T08:34:17;97751.22;;;25.90;nan
40850;BME280;26571;41.610;25.380;2023-03-26T08:36:42;97741.03;;;26.16;nan
40850;BME280;26571;41.610;25.380;2023-03-26T08:39:07;97736.34;;;25.98;nan
40850;BME280;26571;41.610;25.380;2023-03-26T08:57:21;97717.00;;;25.86;nan
40850;BME280;26571;41.610;25.380;2023-03-26T09:20:53;97700.81;;;24.32;nan
40850;BME280;26571;41.610;25.380;2023-03-26T09:29:11;97692.03;;;24.91;nan
40850;BME280;26571;41.610;25.380;2023-03-26T09:39:35;97695.97;;;25.09;nan
40850;BME280;26571;41.610;25.380;2023-03-26T09:42:15;97702.88;;;25.25;nan
40850;BME280;26571;41.610;25.380;2023-03-26T09:58:05;97695.06;;;25.63;nan
40850;BME280;26571;41.610;25.380;2023-03-26T10:00:47;97692.75;;;25.86;nan
40850;BME280;26571;41.610;25.380;2023-03-26T10:11:07;97679.81;;;25.88;nan
40850;BME280;26571;41.610;25.380;2023-03-26T10:31:54;97677.34;;;25.57;nan
40850;BME280;26571;41.610;25.380;2023-03-26T10:37:09;97672.78;;;25.13;nan
40850;BME280;26571;41.610;25.380;2023-03-26T10:50:19;97661.44;;;24.67;nan
40850;BME280;26571;41.610;25.380;2023-03-26T10:53:10;97661.78;;;24.45;nan
40850;BME280;26571;41.610;25.380;2023-03-26T10:55:41;97661.47;;;24.62;nan
40850;BME280;26571;41.610;25.380;2023-03-26T10:58:25;97664.38;;;24.65;nan
40850;BME280;26571;41.610;25.380;2023-03-26T11:01:00;97658.47;;;24.68;nan
40850;BME280;26571;41.610;25.380;2023-03-26T11:06:20;97651.97;;;24.74;nan
40850;BME280;26571;41.610;25.380;2023-03-26T11:19:32;97626.50;;;25.11;nan
40850;BME280;26571;41.610;25.380;2023-03-26T11:22:09;97634.50;;;25.21;nan
40850;BME280;26571;41.610;25.380;2023-03-26T11:32:12;97608.91;;;24.74;nan
40850;BME280;26571;41.610;25.380;2023-03-26T11:37:42;97606.84;;;24.56;nan
40850;BME280;26571;41.610;25.380;2023-03-26T11:40:22;97599.63;;;24.41;nan
40850;BME280;26571;41.610;25.380;2023-03-26T11:42:50;97592.94;;;24.39;nan
40850;BME280;26571;41.610;25.380;2023-03-26T11:45:18;97580.56;;;24.33;nan
40850;BME280;26571;41.610;25.380;2023-03-26T11:47:53;97585.47;;;24.15;nan
40850;BME280;26571;41.610;25.380;2023-03-26T11:50:23;97569.06;;;24.22;nan
40850;BME280;26571;41.610;25.380;2023-03-26T11:52:49;97576.63;;;24.10;nan
40850;BME280;26571;41.610;25.380;2023-03-26T11:55:15;97578.53;;;23.99;nan
40850;BME280;26571;41.610;25.380;2023-03-26T11:57:42;97568.91;;;23.88;nan
40850;BME280;26571;41.610;25.380;2023-03-26T12:00:11;97577.00;;;23.78;nan
40850;BME280;26571;41.610;25.380;2023-03-26T12:02:42;97575.09;;;23.88;nan
40850;BME280;26571;41.610;25.380;2023-03-26T12:10:20;97563.78;;;23.81;nan
40850;BME280;26571;41.610;25.380;2023-03-26T12:12:45;97556.50;;;23.97;nan
40850;BME280;26571;41.610;25.380;2023-03-26T12:15:12;97573.72;;;23.91;nan
40850;BME280;26571;41.610;25.380;2023-03-26T12:17:38;97558.97;;;23.78;nan
40850;BME280;26571;41.610;25.380;2023-03-26T12:22:49;97563.53;;;23.83;nan
40850;BME280;26571;41.610;25.380;2023-03-26T12:25:17;97575.34;;;23.82;nan
40850;BME280;26571;41.610;25.380;2023-03-26T12:27:46;97564.03;;;23.90;nan
40850;BME280;26571;41.610;25.380;2023-03-26T12:30:20;97574.25;;;23.98;nan
40850;BME280;26571;41.610;25.380;2023-03-26T12:32:46;97573.19;;;23.89;nan
40850;BME280;26571;41.610;25.380;2023-03-26T12:35:14;97579.09;;;23.91;nan
40850;BME280;26571;41.610;25.380;2023-03-26T12:37:43;97565.66;;;23.86;nan
40850;BME280;26571;41.610;25.380;2023-03-26T12:40:26;97572.66;;;23.97;nan
40850;BME280;26571;41.610;25.380;2023-03-26T12:42:53;97572.09;;;23.95;nan
40850;BME280;26571;41.610;25.380;2023-03-26T12:45:20;97567.88;;;23.68;nan
40850;BME280;26571;41.610;25.380;2023-03-26T12:47:46;97556.56;;;23.56;nan
40850;BME280;26571;41.610;25.380;2023-03-26T12:50:13;97553.63;;;23.47;nan
40850;BME280;26571;41.610;25.380;2023-03-26T13:00:39;97549.09;;;23.17;nan
40850;BME280;26571;41.610;25.380;2023-03-26T13:10:53;97558.91;;;22.56;nan
40850;BME280;26571;41.610;25.380;2023-03-26T13:15:58;97553.13;;;22.89;nan
40850;BME280;26571;41.610;25.380;2023-03-26T13:23:45;97540.22;;;23.12;nan
40850;BME280;26571;41.610;25.380;2023-03-26T13:29:00;97539.16;;;22.92;nan
40850;BME280;26571;41.610;25.380;2023-03-26T13:34:08;97541.56;;;22.89;nan
40850;BME280;26571;41.610;25.380;2023-03-26T13:36:41;97541.53;;;22.79;nan
40850;BME280;26571;41.610;25.380;2023-03-26T13:39:13;97545.03;;;22.79;nan
40850;BME280;26571;41.610;25.380;2023-03-26T13:46:41;97554.41;;;22.77;nan
40850;BME280;26571;41.610;25.380;2023-03-26T13:49:24;97545.81;;;22.85;nan
40850;BME280;26571;41.610;25.380;2023-03-26T13:52:01;97555.00;;;22.89;nan
40850;BME280;26571;41.610;25.380;2023-03-26T13:57:06;97545.03;;;22.84;nan
40850;BME280;26571;41.610;25.380;2023-03-26T13:59:35;97546.34;;;22.71;nan
40850;BME280;26571;41.610;25.380;2023-03-26T14:02:09;97543.66;;;22.66;nan
40850;BME280;26571;41.610;25.380;2023-03-26T14:04:44;97544.72;;;22.60;nan
40850;BME280;26571;41.610;25.380;2023-03-26T14:07:12;97550.09;;;22.70;nan
40850;BME280;26571;41.610;25.380;2023-03-26T14:09:46;97553.34;;;22.83;nan
40850;BME280;26571;41.610;25.380;2023-03-26T14:17:23;97557.84;;;22.62;nan
40850;BME280;26571;41.610;25.380;2023-03-26T14:30:27;97566.00;;;22.09;nan
40850;BME280;26571;41.610;25.380;2023-03-26T14:47:44;97557.91;;;21.57;nan
40850;BME280;26571;41.610;25.380;2023-03-26T14:52:59;97569.44;;;21.57;nan
40850;BME280;26571;41.610;25.380;2023-03-26T15:08:50;97566.72;;;21.52;nan
40850;BME280;26571;41.610;25.380;2023-03-26T15:16:49;97570.78;;;21.55;nan
40850;BME280;26571;41.610;25.380;2023-03-26T15:22:18;97588.69;;;21.49;nan
40850;BME280;26571;41.610;25.380;2023-03-26T15:27:48;97570.44;;;21.46;nan
40850;BME280;26571;41.610;25.380;2023-03-26T15:33:07;97560.56;;;21.14;nan
40850;BME280;26571;41.610;25.380;2023-03-26T15:46:25;97574.56;;;20.24;nan
40850;BME280;26571;41.610;25.380;2023-03-26T15:49:18;97577.13;;;20.13;nan
40850;BME280;26571;41.610;25.380;2023-03-26T15:51:50;97586.72;;;20.09;nan
40850;BME280;26571;41.610;25.380;2023-03-26T15:54:22;97587.94;;;20.02;nan
40850;BME280;26571;41.610;25.380;2023-03-26T16:09:43;97606.94;;;18.71;nan
40850;BME280;26571;41.610;25.380;2023-03-26T16:14:40;97609.50;;;18.66;nan
40850;BME280;26571;41.610;25.380;2023-03-26T16:17:11;97613.00;;;18.54;nan
40850;BME280;26571;41.610;25.380;2023-03-26T16:22:10;97617.03;;;18.57;nan
40850;BME280;26571;41.610;25.380;2023-03-26T16:24:39;97615.56;;;18.49;nan
40850;BME280;26571;41.610;25.380;2023-03-26T16:32:33;97625.13;;;18.22;nan
40850;BME280;26571;41.610;25.380;2023-03-26T16:43:23;97620.53;;;17.47;nan
40850;BME280;26571;41.610;25.380;2023-03-26T16:45:33;97618.06;;;17.22;nan
40850;BME280;26571;41.610;25.380;2023-03-26T16:50:42;97626.28;;;16.90;nan
40850;BME280;26571;41.610;25.380;2023-03-26T16:53:22;97622.94;;;16.65;nan
40850;BME280;26571;41.610;25.380;2023-03-26T16:56:05;97632.88;;;16.39;nan
40850;BME280;26571;41.610;25.380;2023-03-26T17:03:45;97635.53;;;16.21;nan
40850;BME280;26571;41.610;25.380;2023-03-26T17:06:35;97641.72;;;16.15;nan
40850;BME280;26571;41.610;25.380;2023-03-26T17:11:49;97647.19;;;16.20;nan
40850;BME280;26571;41.610;25.380;2023-03-26T17:14:23;97657.28;;;16.29;nan
40850;BME280;26571;41.610;25.380;2023-03-26T17:17:03;97659.13;;;16.29;nan
40850;BME280;26571;41.610;25.380;2023-03-26T17:19:34;97665.78;;;16.20;nan
40850;BME280;26571;41.610;25.380;2023-03-26T17:24:51;97666.16;;;15.80;nan
40850;BME280;26571;41.610;25.380;2023-03-26T17:27:32;97670.09;;;15.77;nan
40850;BME280;26571;41.610;25.380;2023-03-26T17:35:11;97674.16;;;15.98;nan
40850;BME280;26571;41.610;25.380;2023-03-26T17:37:40;97679.94;;;16.14;nan
40850;BME280;26571;41.610;25.380;2023-03-26T17:40:29;97682.22;;;16.28;nan
40850;BME280;26571;41.610;25.380;2023-03-26T17:43:07;97690.50;;;16.39;nan
40850;BME280;26571;41.610;25.380;2023-03-26T17:45:35;97687.75;;;16.45;nan
40850;BME280;26571;41.610;25.380;2023-03-26T17:48:05;97664.75;;;16.39;nan
40850;BME280;26571;41.610;25.380;2023-03-26T17:50:33;97693.72;;;16.59;nan
40850;BME280;26571;41.610;25.380;2023-03-26T17:53:09;97695.16;;;16.62;nan
40850;BME280;26571;41.610;25.380;2023-03-26T17:55:37;97700.59;;;16.67;nan
40850;BME280;26571;41.610;25.380;2023-03-26T17:58:50;97708.28;;;16.75;nan
40850;BME280;26571;41.610;25.380;2023-03-26T18:03:49;97701.97;;;16.76;nan
40850;BME280;26571;41.610;25.380;2023-03-26T18:09:07;97716.91;;;16.89;nan
40850;BME280;26571;41.610;25.380;2023-03-26T18:11:53;97718.19;;;16.86;nan
40850;BME280;26571;41.610;25.380;2023-03-26T18:14:32;97730.06;;;16.84;nan
40850;BME280;26571;41.610;25.380;2023-03-26T18:17:05;97721.16;;;16.78;nan
40850;BME280;26571;41.610;25.380;2023-03-26T18:19:30;97730.59;;;16.74;nan
40850;BME280;26571;41.610;25.380;2023-03-26T18:22:22;97728.81;;;16.68;nan
40850;BME280;26571;41.610;25.380;2023-03-26T18:24:49;97731.88;;;16.65;nan
40850;BME280;26571;41.610;25.380;2023-03-26T18:27:18;97733.97;;;16.63;nan
40850;BME280;26571;41.610;25.380;2023-03-26T18:29:45;97738.09;;;16.59;nan
40850;BME280;26571;41.610;25.380;2023-03-26T18:32:22;97738.75;;;16.54;nan
40850;BME280;26571;41.610;25.380;2023-03-26T18:34:53;97735.59;;;16.64;nan
40850;BME280;26571;41.610;25.380;2023-03-26T18:37:22;97729.38;;;16.70;nan
40850;BME280;26571;41.610;25.380;2023-03-26T18:42:23;97724.47;;;16.73;nan
40850;BME280;26571;41.610;25.380;2023-03-26T18:44:49;97726.91;;;16.75;nan
40850;BME280;26571;41.610;25.380;2023-03-26T18:47:16;97727.75;;;16.69;nan
40850;BME280;26571;41.610;25.380;2023-03-26T18:49:45;97733.50;;;16.66;nan
40850;BME280;26571;41.610;25.380;2023-03-26T18:52:17;97734.41;;;16.60;nan
40850;BME280;26571;41.610;25.380;2023-03-26T18:54:45;97731.44;;;16.49;nan
40850;BME280;26571;41.610;25.380;2023-03-26T18:57:18;97725.09;;;16.50;nan
40850;BME280;26571;41.610;25.380;2023-03-26T18:59:44;97723.19;;;16.39;nan
40850;BME280;26571;41.610;25.380;2023-03-26T19:02:12;97722.00;;;16.35;nan
40850;BME280;26571;41.610;25.380;2023-03-26T19:04:38;97715.06;;;16.34;nan
40850;BME280;26571;41.610;25.380;2023-03-26T19:07:08;97722.44;;;16.32;nan
40850;BME280;26571;41.610;25.380;2023-03-26T19:09:36;97720.34;;;16.16;nan